ASL100 LYBE-LOWS
Flight info
| Callsign | ASL100 |
|---|---|
| Flight time | 1h 17m |
| Altitude | 320 |
| Route | TISA3S TISAK L610 TONDO GOTAR NUBRA NUBR3R |
| Aircraft | B738/M-SDE3FGHIRWY/LB1 |
Departure
| Time | 2026-04-29 15:14 |
|---|---|
| Airport | Belgrade Nikola Tesla Airport (LYBE) |
Arrival
| Time | 2026-04-29 16:32 |
|---|---|
| Airport | Salzburg Airport (LOWS) |
| Time | Latitude | Longitude | Altitude | Speed | Heading |
|---|---|---|---|---|---|
| 2026-04-29 15:04 | 44.81972 | 20.29319 | 306 ft | 0 kts | 302° |
| 2026-04-29 15:06 | 44.81963 | 20.29337 | 306 ft | 2 kts | 302° |
| 2026-04-29 15:06 | 44.81955 | 20.29356 | 306 ft | 2 kts | 303° |
| 2026-04-29 15:06 | 44.81945 | 20.29375 | 305 ft | 2 kts | 318° |
| 2026-04-29 15:06 | 44.81931 | 20.29386 | 305 ft | 2 kts | 3° |
| 2026-04-29 15:07 | 44.81921 | 20.29384 | 305 ft | 1 kts | 27° |
| 2026-04-29 15:07 | 44.81920 | 20.29383 | 304 ft | 0 kts | 27° |
| 2026-04-29 15:09 | 44.81922 | 20.29384 | 306 ft | 1 kts | 26° |
| 2026-04-29 15:09 | 44.81935 | 20.29392 | 306 ft | 3 kts | 22° |
| 2026-04-29 15:09 | 44.81965 | 20.29410 | 307 ft | 6 kts | 30° |
| 2026-04-29 15:10 | 44.82007 | 20.29444 | 307 ft | 8 kts | 32° |
| 2026-04-29 15:10 | 44.82061 | 20.29492 | 307 ft | 10 kts | 32° |
| 2026-04-29 15:10 | 44.82114 | 20.29559 | 307 ft | 11 kts | 76° |
| 2026-04-29 15:10 | 44.82085 | 20.29658 | 308 ft | 12 kts | 123° |
| 2026-04-29 15:11 | 44.82038 | 20.29765 | 307 ft | 14 kts | 123° |
| 2026-04-29 15:11 | 44.82002 | 20.29846 | 306 ft | 15 kts | 121° |
| 2026-04-29 15:11 | 44.81942 | 20.29980 | 307 ft | 17 kts | 122° |
| 2026-04-29 15:11 | 44.81877 | 20.30128 | 306 ft | 18 kts | 122° |
| 2026-04-29 15:12 | 44.81808 | 20.30283 | 306 ft | 19 kts | 124° |
| 2026-04-29 15:12 | 44.81732 | 20.30445 | 308 ft | 20 kts | 122° |
| 2026-04-29 15:12 | 44.81656 | 20.30621 | 306 ft | 22 kts | 122° |
| 2026-04-29 15:12 | 44.81577 | 20.30808 | 306 ft | 23 kts | 120° |
| 2026-04-29 15:13 | 44.81485 | 20.30996 | 307 ft | 24 kts | 123° |
| 2026-04-29 15:13 | 44.81391 | 20.31197 | 305 ft | 25 kts | 123° |
| 2026-04-29 15:13 | 44.81316 | 20.31384 | 306 ft | 15 kts | 111° |
| 2026-04-29 15:13 | 44.81351 | 20.31463 | 305 ft | 13 kts | 24° |
| 2026-04-29 15:14 | 44.81441 | 20.31371 | 304 ft | 36 kts | 303° |
| 2026-04-29 15:14 | 44.81735 | 20.30710 | 307 ft | 121 kts | 302° |
| 2026-04-29 15:14 | 44.82288 | 20.29428 | 522 ft | 172 kts | 300° |
| 2026-04-29 15:14 | 44.83061 | 20.28232 | 1774 ft | 164 kts | 326° |
| 2026-04-29 15:15 | 44.84093 | 20.27602 | 2878 ft | 160 kts | 346° |
| 2026-04-29 15:15 | 44.85251 | 20.27438 | 3714 ft | 174 kts | 356° |
| 2026-04-29 15:15 | 44.86480 | 20.27238 | 4638 ft | 179 kts | 347° |
| 2026-04-29 15:15 | 44.86887 | 20.27096 | 4947 ft | 177 kts | 346° |
| 2026-04-29 15:16 | 44.87815 | 20.26746 | 5608 ft | 174 kts | 346° |
| 2026-04-29 15:16 | 44.88980 | 20.26343 | 6395 ft | 171 kts | 348° |
| 2026-04-29 15:16 | 44.90141 | 20.26010 | 7116 ft | 169 kts | 350° |
| 2026-04-29 15:16 | 44.91300 | 20.25746 | 7780 ft | 168 kts | 352° |
| 2026-04-29 15:17 | 44.92458 | 20.25542 | 8431 ft | 169 kts | 353° |
| 2026-04-29 15:17 | 44.93722 | 20.25364 | 8657 ft | 196 kts | 354° |
| 2026-04-29 15:17 | 44.95152 | 20.25198 | 8843 ft | 216 kts | 354° |
| 2026-04-29 15:17 | 44.96719 | 20.25044 | 9020 ft | 235 kts | 355° |
| 2026-04-29 15:18 | 44.98418 | 20.24901 | 9198 ft | 253 kts | 355° |
| 2026-04-29 15:18 | 45.00212 | 20.24773 | 9572 ft | 261 kts | 356° |
| 2026-04-29 15:18 | 45.02035 | 20.24666 | 10086 ft | 263 kts | 356° |
| 2026-04-29 15:18 | 45.03860 | 20.24577 | 10556 ft | 264 kts | 356° |
| 2026-04-29 15:19 | 45.05711 | 20.24508 | 11004 ft | 268 kts | 356° |
| 2026-04-29 15:19 | 45.07579 | 20.24454 | 11441 ft | 270 kts | 356° |
| 2026-04-29 15:19 | 45.09471 | 20.24408 | 11890 ft | 273 kts | 356° |
| 2026-04-29 15:19 | 45.11383 | 20.24363 | 12326 ft | 276 kts | 355° |
| 2026-04-29 15:20 | 45.13311 | 20.24316 | 12763 ft | 279 kts | 355° |
| 2026-04-29 15:20 | 45.15265 | 20.24265 | 13185 ft | 282 kts | 355° |
| 2026-04-29 15:20 | 45.17244 | 20.24208 | 13624 ft | 286 kts | 354° |
| 2026-04-29 15:20 | 45.19247 | 20.24148 | 14130 ft | 290 kts | 354° |
| 2026-04-29 15:21 | 45.21277 | 20.24085 | 14739 ft | 292 kts | 353° |
| 2026-04-29 15:21 | 45.23305 | 20.24024 | 15492 ft | 291 kts | 353° |
| 2026-04-29 15:21 | 45.25334 | 20.23963 | 16163 ft | 293 kts | 352° |
| 2026-04-29 15:21 | 45.27362 | 20.23892 | 16777 ft | 297 kts | 352° |
| 2026-04-29 15:22 | 45.29435 | 20.23800 | 17412 ft | 300 kts | 351° |
| 2026-04-29 15:22 | 45.31527 | 20.23674 | 18047 ft | 302 kts | 350° |
| 2026-04-29 15:22 | 45.33636 | 20.23535 | 18662 ft | 305 kts | 350° |
| 2026-04-29 15:22 | 45.35770 | 20.23428 | 19237 ft | 308 kts | 351° |
| 2026-04-29 15:23 | 45.37921 | 20.23372 | 19821 ft | 310 kts | 351° |
| 2026-04-29 15:23 | 45.40087 | 20.23394 | 20415 ft | 313 kts | 353° |
| 2026-04-29 15:23 | 45.42243 | 20.23248 | 20901 ft | 306 kts | 337° |
| 2026-04-29 15:23 | 45.44023 | 20.21846 | 21398 ft | 286 kts | 307° |
| 2026-04-29 15:24 | 45.45059 | 20.19531 | 22160 ft | 273 kts | 294° |
| 2026-04-29 15:24 | 45.46172 | 20.17285 | 22588 ft | 288 kts | 311° |
| 2026-04-29 15:24 | 45.47753 | 20.15484 | 23180 ft | 292 kts | 317° |
| 2026-04-29 15:24 | 45.49408 | 20.13800 | 23763 ft | 293 kts | 316° |
| 2026-04-29 15:25 | 45.51022 | 20.12016 | 24211 ft | 293 kts | 313° |
| 2026-04-29 15:25 | 45.52531 | 20.10074 | 24674 ft | 292 kts | 310° |
| 2026-04-29 15:25 | 45.53987 | 20.08055 | 25160 ft | 292 kts | 309° |
| 2026-04-29 15:25 | 45.55430 | 20.06007 | 25624 ft | 293 kts | 309° |
| 2026-04-29 15:26 | 45.56877 | 20.03946 | 26073 ft | 295 kts | 309° |
| 2026-04-29 15:26 | 45.58334 | 20.01878 | 26587 ft | 294 kts | 309° |
| 2026-04-29 15:26 | 45.59783 | 19.99834 | 27096 ft | 294 kts | 309° |
| 2026-04-29 15:26 | 45.61271 | 19.97731 | 27144 ft | 308 kts | 309° |
| 2026-04-29 15:27 | 45.62816 | 19.95545 | 27312 ft | 317 kts | 309° |
| 2026-04-29 15:27 | 45.64399 | 19.93309 | 27607 ft | 322 kts | 310° |
| 2026-04-29 15:27 | 45.65998 | 19.91056 | 28057 ft | 323 kts | 310° |
| 2026-04-29 15:27 | 45.67590 | 19.88823 | 28666 ft | 319 kts | 310° |
| 2026-04-29 15:28 | 45.69162 | 19.86622 | 29305 ft | 314 kts | 310° |
| 2026-04-29 15:28 | 45.70216 | 19.85147 | 29660 ft | 313 kts | 310° |
| 2026-04-29 15:28 | 45.72281 | 19.82252 | 30188 ft | 315 kts | 310° |
| 2026-04-29 15:28 | 45.73838 | 19.80064 | 30630 ft | 312 kts | 310° |
| 2026-04-29 15:29 | 45.75376 | 19.77904 | 31119 ft | 308 kts | 310° |
| 2026-04-29 15:29 | 45.78422 | 19.73624 | 31842 ft | 307 kts | 310° |
| 2026-04-29 15:30 | 45.81482 | 19.69309 | 32146 ft | 314 kts | 310° |
| 2026-04-29 15:30 | 45.84559 | 19.64958 | 32158 ft | 307 kts | 310° |
| 2026-04-29 15:31 | 45.87563 | 19.60711 | 32177 ft | 304 kts | 310° |
| 2026-04-29 15:31 | 45.90569 | 19.56430 | 32191 ft | 305 kts | 309° |
| 2026-04-29 15:32 | 45.93578 | 19.52112 | 32196 ft | 306 kts | 309° |
| 2026-04-29 15:32 | 45.96576 | 19.47752 | 32201 ft | 307 kts | 309° |
| 2026-04-29 15:33 | 45.99558 | 19.43352 | 32196 ft | 307 kts | 309° |
| 2026-04-29 15:33 | 46.02614 | 19.39043 | 32197 ft | 307 kts | 310° |
| 2026-04-29 15:34 | 46.05397 | 19.34514 | 32147 ft | 297 kts | 286° |
| 2026-04-29 15:34 | 46.05785 | 19.31651 | 32243 ft | 299 kts | 279° |
| 2026-04-29 15:34 | 46.06250 | 19.28680 | 32171 ft | 310 kts | 291° |
| 2026-04-29 15:35 | 46.08554 | 19.23228 | 32197 ft | 330 kts | 301° |
| 2026-04-29 15:35 | 46.11003 | 19.17474 | 32238 ft | 344 kts | 295° |
| 2026-04-29 15:36 | 46.13030 | 19.11044 | 32231 ft | 359 kts | 292° |
| 2026-04-29 15:36 | 46.15049 | 19.04274 | 32222 ft | 374 kts | 292° |
| 2026-04-29 15:37 | 46.17200 | 18.97273 | 32225 ft | 388 kts | 293° |
| 2026-04-29 15:37 | 46.19446 | 18.90132 | 32222 ft | 391 kts | 293° |
| 2026-04-29 15:38 | 46.20964 | 18.85341 | 32199 ft | 392 kts | 293° |
| 2026-04-29 15:38 | 46.23333 | 18.77862 | 32195 ft | 392 kts | 293° |
| 2026-04-29 15:39 | 46.25570 | 18.70773 | 32193 ft | 390 kts | 293° |
| 2026-04-29 15:39 | 46.27808 | 18.63662 | 32207 ft | 387 kts | 293° |
| 2026-04-29 15:40 | 46.30027 | 18.56582 | 32217 ft | 385 kts | 293° |
| 2026-04-29 15:40 | 46.32231 | 18.49534 | 32194 ft | 384 kts | 292° |
| 2026-04-29 15:41 | 46.34423 | 18.42497 | 32200 ft | 383 kts | 292° |
| 2026-04-29 15:41 | 46.36604 | 18.35479 | 32216 ft | 382 kts | 292° |
| 2026-04-29 15:42 | 46.38779 | 18.28465 | 32221 ft | 382 kts | 292° |
| 2026-04-29 15:42 | 46.40952 | 18.21434 | 32211 ft | 383 kts | 292° |
| 2026-04-29 15:43 | 46.43123 | 18.14385 | 32201 ft | 384 kts | 292° |
| 2026-04-29 15:43 | 46.45294 | 18.07316 | 32223 ft | 384 kts | 292° |
| 2026-04-29 15:44 | 46.47465 | 18.00228 | 32213 ft | 385 kts | 292° |
| 2026-04-29 15:44 | 46.49638 | 17.93122 | 32219 ft | 386 kts | 292° |
| 2026-04-29 15:45 | 46.51811 | 17.86000 | 32229 ft | 386 kts | 292° |
| 2026-04-29 15:45 | 46.53983 | 17.78854 | 32206 ft | 387 kts | 292° |
| 2026-04-29 15:46 | 46.56152 | 17.71696 | 32230 ft | 387 kts | 292° |
| 2026-04-29 15:46 | 46.58316 | 17.64527 | 32214 ft | 388 kts | 292° |
| 2026-04-29 15:47 | 46.60456 | 17.57411 | 32234 ft | 387 kts | 292° |
| 2026-04-29 15:47 | 46.62625 | 17.50180 | 32232 ft | 387 kts | 292° |
| 2026-04-29 15:48 | 46.64758 | 17.43049 | 32237 ft | 387 kts | 292° |
| 2026-04-29 15:48 | 46.66900 | 17.35871 | 32241 ft | 387 kts | 292° |
| 2026-04-29 15:49 | 46.69038 | 17.28689 | 32249 ft | 387 kts | 292° |
| 2026-04-29 15:49 | 46.71169 | 17.21502 | 32241 ft | 387 kts | 292° |
| 2026-04-29 15:50 | 46.73300 | 17.14298 | 32243 ft | 386 kts | 292° |
| 2026-04-29 15:50 | 46.75421 | 17.07109 | 32247 ft | 386 kts | 292° |
| 2026-04-29 15:51 | 46.77539 | 16.99908 | 32241 ft | 386 kts | 291° |
| 2026-04-29 15:51 | 46.79654 | 16.92687 | 32248 ft | 387 kts | 291° |
| 2026-04-29 15:52 | 46.81765 | 16.85451 | 32237 ft | 387 kts | 291° |
| 2026-04-29 15:52 | 46.83872 | 16.78210 | 32236 ft | 387 kts | 291° |
| 2026-04-29 15:53 | 46.85975 | 16.70965 | 32231 ft | 388 kts | 291° |
| 2026-04-29 15:53 | 46.88065 | 16.63739 | 32226 ft | 388 kts | 291° |
| 2026-04-29 15:54 | 46.90158 | 16.56474 | 32240 ft | 388 kts | 291° |
| 2026-04-29 15:54 | 46.92246 | 16.49189 | 32228 ft | 389 kts | 291° |
| 2026-04-29 15:55 | 46.94329 | 16.41895 | 32240 ft | 389 kts | 291° |
| 2026-04-29 15:55 | 46.96401 | 16.34581 | 32227 ft | 389 kts | 291° |
| 2026-04-29 15:56 | 46.98477 | 16.27257 | 32235 ft | 389 kts | 291° |
| 2026-04-29 15:56 | 47.00588 | 16.19950 | 32229 ft | 390 kts | 292° |
| 2026-04-29 15:57 | 47.02526 | 16.13970 | 32230 ft | 391 kts | 295° |
| 2026-04-29 15:57 | 47.05088 | 16.06921 | 32242 ft | 392 kts | 296° |
| 2026-04-29 15:58 | 47.07641 | 15.99855 | 32230 ft | 392 kts | 295° |
| 2026-04-29 15:58 | 47.10107 | 15.92712 | 32234 ft | 393 kts | 295° |
| 2026-04-29 15:59 | 47.12525 | 15.85519 | 32239 ft | 394 kts | 294° |
| 2026-04-29 15:59 | 47.14934 | 15.78288 | 32232 ft | 394 kts | 294° |
| 2026-04-29 16:00 | 47.17346 | 15.71039 | 32235 ft | 395 kts | 294° |
| 2026-04-29 16:00 | 47.19759 | 15.63783 | 32237 ft | 395 kts | 294° |
| 2026-04-29 16:01 | 47.22157 | 15.56558 | 32233 ft | 396 kts | 294° |
| 2026-04-29 16:01 | 47.24570 | 15.49265 | 32242 ft | 397 kts | 294° |
| 2026-04-29 16:02 | 47.26982 | 15.41949 | 32230 ft | 397 kts | 294° |
| 2026-04-29 16:02 | 47.29388 | 15.34623 | 32215 ft | 398 kts | 294° |
| 2026-04-29 16:03 | 47.31796 | 15.27268 | 32210 ft | 398 kts | 294° |
| 2026-04-29 16:03 | 47.34192 | 15.19930 | 32245 ft | 396 kts | 294° |
| 2026-04-29 16:04 | 47.36590 | 15.12570 | 32213 ft | 399 kts | 294° |
| 2026-04-29 16:04 | 47.38982 | 15.05195 | 32182 ft | 390 kts | 294° |
| 2026-04-29 16:04 | 47.40128 | 15.01662 | 32130 ft | 376 kts | 294° |
| 2026-04-29 16:05 | 47.41257 | 14.98177 | 31472 ft | 377 kts | 294° |
| 2026-04-29 16:05 | 47.42381 | 14.94708 | 31082 ft | 372 kts | 294° |
| 2026-04-29 16:05 | 47.43492 | 14.91285 | 30561 ft | 370 kts | 294° |
| 2026-04-29 16:05 | 47.44587 | 14.87927 | 30128 ft | 366 kts | 294° |
| 2026-04-29 16:06 | 47.45684 | 14.84542 | 29561 ft | 365 kts | 294° |
| 2026-04-29 16:06 | 47.46771 | 14.81163 | 29034 ft | 363 kts | 294° |
| 2026-04-29 16:06 | 47.47847 | 14.77798 | 28520 ft | 361 kts | 294° |
| 2026-04-29 16:06 | 47.48911 | 14.74445 | 27972 ft | 359 kts | 294° |
| 2026-04-29 16:07 | 47.49965 | 14.71112 | 27483 ft | 357 kts | 294° |
| 2026-04-29 16:07 | 47.51016 | 14.67793 | 26969 ft | 355 kts | 294° |
| 2026-04-29 16:07 | 47.52061 | 14.64488 | 26494 ft | 354 kts | 295° |
| 2026-04-29 16:07 | 47.53101 | 14.61199 | 26026 ft | 352 kts | 295° |
| 2026-04-29 16:08 | 47.54138 | 14.57916 | 25532 ft | 352 kts | 295° |
| 2026-04-29 16:08 | 47.55169 | 14.54642 | 25073 ft | 350 kts | 295° |
| 2026-04-29 16:08 | 47.56193 | 14.51381 | 24633 ft | 349 kts | 295° |
| 2026-04-29 16:08 | 47.57212 | 14.48131 | 24176 ft | 348 kts | 295° |
| 2026-04-29 16:09 | 47.58231 | 14.44883 | 23711 ft | 348 kts | 295° |
| 2026-04-29 16:09 | 47.59249 | 14.41637 | 23186 ft | 347 kts | 295° |
| 2026-04-29 16:09 | 47.60262 | 14.38403 | 22673 ft | 345 kts | 295° |
| 2026-04-29 16:09 | 47.61273 | 14.35179 | 22172 ft | 345 kts | 295° |
| 2026-04-29 16:10 | 47.62285 | 14.31954 | 21642 ft | 345 kts | 295° |
| 2026-04-29 16:10 | 47.63295 | 14.28741 | 21175 ft | 343 kts | 296° |
| 2026-04-29 16:10 | 47.64301 | 14.25533 | 20686 ft | 343 kts | 296° |
| 2026-04-29 16:10 | 47.65310 | 14.22327 | 20235 ft | 342 kts | 296° |
| 2026-04-29 16:11 | 47.66308 | 14.19165 | 20002 ft | 335 kts | 296° |
| 2026-04-29 16:11 | 47.67286 | 14.16062 | 19690 ft | 330 kts | 296° |
| 2026-04-29 16:11 | 47.68253 | 14.12990 | 19389 ft | 327 kts | 296° |
| 2026-04-29 16:11 | 47.69208 | 14.09951 | 19083 ft | 323 kts | 296° |
| 2026-04-29 16:12 | 47.70153 | 14.06945 | 18791 ft | 320 kts | 296° |
| 2026-04-29 16:12 | 47.70777 | 14.04968 | 18572 ft | 318 kts | 296° |
| 2026-04-29 16:12 | 47.72017 | 14.01028 | 18235 ft | 313 kts | 296° |
| 2026-04-29 16:12 | 47.72932 | 13.98091 | 17845 ft | 315 kts | 295° |
| 2026-04-29 16:13 | 47.73847 | 13.95128 | 17565 ft | 317 kts | 295° |
| 2026-04-29 16:13 | 47.74765 | 13.92136 | 17232 ft | 320 kts | 294° |
| 2026-04-29 16:13 | 47.75605 | 13.89081 | 16902 ft | 319 kts | 292° |
| 2026-04-29 16:13 | 47.76357 | 13.85993 | 16606 ft | 317 kts | 290° |
| 2026-04-29 16:14 | 47.77075 | 13.82903 | 16308 ft | 316 kts | 290° |
| 2026-04-29 16:14 | 47.77809 | 13.79834 | 15970 ft | 315 kts | 291° |
| 2026-04-29 16:14 | 47.78561 | 13.76788 | 15699 ft | 313 kts | 291° |
| 2026-04-29 16:14 | 47.79319 | 13.73755 | 15392 ft | 313 kts | 291° |
| 2026-04-29 16:15 | 47.80079 | 13.70716 | 15074 ft | 313 kts | 291° |
| 2026-04-29 16:15 | 47.80836 | 13.67689 | 14810 ft | 312 kts | 291° |
| 2026-04-29 16:15 | 47.81587 | 13.64657 | 14524 ft | 313 kts | 291° |
| 2026-04-29 16:15 | 47.82344 | 13.61619 | 14204 ft | 313 kts | 291° |
| 2026-04-29 16:16 | 47.83103 | 13.58580 | 13936 ft | 313 kts | 291° |
| 2026-04-29 16:16 | 47.83864 | 13.55546 | 13604 ft | 313 kts | 291° |
| 2026-04-29 16:16 | 47.84614 | 13.52564 | 13268 ft | 310 kts | 291° |
| 2026-04-29 16:16 | 47.85369 | 13.49578 | 12942 ft | 307 kts | 292° |
| 2026-04-29 16:17 | 47.86115 | 13.46621 | 12631 ft | 303 kts | 291° |
| 2026-04-29 16:17 | 47.86845 | 13.43699 | 12335 ft | 300 kts | 291° |
| 2026-04-29 16:17 | 47.87565 | 13.40787 | 12035 ft | 299 kts | 291° |
| 2026-04-29 16:17 | 47.88279 | 13.37877 | 11707 ft | 299 kts | 291° |
| 2026-04-29 16:18 | 47.88992 | 13.34985 | 11398 ft | 297 kts | 291° |
| 2026-04-29 16:18 | 47.89706 | 13.32103 | 11116 ft | 295 kts | 291° |
| 2026-04-29 16:18 | 47.90420 | 13.29236 | 10814 ft | 295 kts | 291° |
| 2026-04-29 16:18 | 47.91132 | 13.26377 | 10520 ft | 294 kts | 291° |
| 2026-04-29 16:19 | 47.91834 | 13.23524 | 10237 ft | 293 kts | 291° |
| 2026-04-29 16:19 | 47.92528 | 13.20674 | 9943 ft | 292 kts | 291° |
| 2026-04-29 16:19 | 47.93220 | 13.17824 | 9602 ft | 292 kts | 291° |
| 2026-04-29 16:19 | 47.93906 | 13.14976 | 9284 ft | 292 kts | 291° |
| 2026-04-29 16:20 | 47.94592 | 13.12135 | 8958 ft | 291 kts | 291° |
| 2026-04-29 16:20 | 47.95282 | 13.09302 | 8666 ft | 291 kts | 291° |
| 2026-04-29 16:20 | 47.95975 | 13.06466 | 8344 ft | 292 kts | 291° |
| 2026-04-29 16:20 | 47.96676 | 13.03608 | 8062 ft | 294 kts | 292° |
| 2026-04-29 16:21 | 47.97377 | 13.00766 | 8039 ft | 288 kts | 292° |
| 2026-04-29 16:21 | 47.98069 | 12.97959 | 8052 ft | 291 kts | 292° |
| 2026-04-29 16:21 | 47.98769 | 12.95095 | 8017 ft | 295 kts | 291° |
| 2026-04-29 16:21 | 47.99467 | 12.92208 | 8047 ft | 297 kts | 291° |
| 2026-04-29 16:22 | 48.00160 | 12.89310 | 8018 ft | 295 kts | 291° |
| 2026-04-29 16:22 | 48.00819 | 12.86420 | 8019 ft | 295 kts | 287° |
| 2026-04-29 16:22 | 48.00939 | 12.83383 | 7983 ft | 298 kts | 257° |
| 2026-04-29 16:22 | 47.99960 | 12.80698 | 8023 ft | 299 kts | 225° |
| 2026-04-29 16:23 | 47.98186 | 12.79138 | 8027 ft | 299 kts | 193° |
| 2026-04-29 16:23 | 47.96129 | 12.79148 | 8014 ft | 299 kts | 162° |
| 2026-04-29 16:23 | 47.94291 | 12.80541 | 8077 ft | 296 kts | 143° |
| 2026-04-29 16:23 | 47.92748 | 12.82600 | 8045 ft | 298 kts | 130° |
| 2026-04-29 16:24 | 47.91458 | 12.85022 | 7971 ft | 298 kts | 122° |
| 2026-04-29 16:24 | 47.90406 | 12.87683 | 7670 ft | 297 kts | 114° |
| 2026-04-29 16:24 | 47.89641 | 12.90511 | 7391 ft | 292 kts | 105° |
| 2026-04-29 16:24 | 47.89198 | 12.93434 | 7129 ft | 288 kts | 98° |
| 2026-04-29 16:25 | 47.88899 | 12.96326 | 6865 ft | 285 kts | 96° |
| 2026-04-29 16:25 | 47.88615 | 12.99266 | 6584 ft | 282 kts | 96° |
| 2026-04-29 16:25 | 47.88303 | 13.02097 | 6315 ft | 280 kts | 99° |
| 2026-04-29 16:25 | 47.87804 | 13.04889 | 5986 ft | 280 kts | 110° |
| 2026-04-29 16:26 | 47.86606 | 13.07186 | 5533 ft | 288 kts | 143° |
| 2026-04-29 16:26 | 47.84741 | 13.08255 | 5280 ft | 289 kts | 166° |
| 2026-04-29 16:26 | 47.82783 | 13.08868 | 4979 ft | 288 kts | 166° |
| 2026-04-29 16:26 | 47.80806 | 13.09381 | 4603 ft | 288 kts | 169° |
| 2026-04-29 16:27 | 47.78816 | 13.09767 | 4317 ft | 289 kts | 171° |
| 2026-04-29 16:27 | 47.76818 | 13.10115 | 4076 ft | 284 kts | 171° |
| 2026-04-29 16:27 | 47.74914 | 13.10436 | 4098 ft | 270 kts | 171° |
| 2026-04-29 16:27 | 47.73082 | 13.10737 | 4126 ft | 259 kts | 172° |
| 2026-04-29 16:28 | 47.71325 | 13.10997 | 4124 ft | 247 kts | 172° |
| 2026-04-29 16:28 | 47.69656 | 13.11118 | 4080 ft | 235 kts | 187° |
| 2026-04-29 16:28 | 47.68294 | 13.10083 | 4102 ft | 214 kts | 231° |
| 2026-04-29 16:28 | 47.67821 | 13.08127 | 4121 ft | 201 kts | 276° |
| 2026-04-29 16:29 | 47.68374 | 13.06403 | 4118 ft | 180 kts | 325° |
| 2026-04-29 16:29 | 47.69490 | 13.05986 | 4075 ft | 164 kts | 17° |
| 2026-04-29 16:29 | 47.70524 | 13.06598 | 4171 ft | 166 kts | 17° |
| 2026-04-29 16:29 | 47.71643 | 13.06319 | 4019 ft | 168 kts | 331° |
| 2026-04-29 16:30 | 47.72641 | 13.05365 | 3396 ft | 178 kts | 332° |
| 2026-04-29 16:30 | 47.73706 | 13.04314 | 2659 ft | 185 kts | 328° |
| 2026-04-29 16:30 | 47.74733 | 13.03319 | 2509 ft | 166 kts | 332° |
| 2026-04-29 16:30 | 47.75773 | 13.02608 | 2082 ft | 161 kts | 341° |
| 2026-04-29 16:31 | 47.76772 | 13.01989 | 1788 ft | 150 kts | 338° |
| 2026-04-29 16:31 | 47.77696 | 13.01411 | 1505 ft | 136 kts | 339° |
| 2026-04-29 16:31 | 47.78506 | 13.00917 | 1418 ft | 111 kts | 337° |
| 2026-04-29 16:31 | 47.79071 | 13.00563 | 1421 ft | 51 kts | 337° |
| 2026-04-29 16:32 | 47.79121 | 13.00515 | 1418 ft | 1 kts | 272° |
| 2026-04-29 16:32 | 47.79120 | 13.00505 | 1419 ft | 4 kts | 261° |
| 2026-04-29 16:32 | 47.79116 | 13.00411 | 1418 ft | 8 kts | 275° |
| 2026-04-29 16:32 | 47.79122 | 13.00320 | 1422 ft | 10 kts | 278° |
| 2026-04-29 16:33 | 47.79240 | 13.00188 | 1420 ft | 12 kts | 337° |
| 2026-04-29 16:33 | 47.79315 | 13.00141 | 1422 ft | 12 kts | 337° |
| 2026-04-29 16:33 | 47.79348 | 13.00038 | 1421 ft | 13 kts | 253° |
| 2026-04-29 16:34 | 47.79284 | 12.99952 | 1422 ft | 14 kts | 171° |
| 2026-04-29 16:34 | 47.79209 | 13.00014 | 1422 ft | 10 kts | 118° |
| 2026-04-29 16:34 | 47.79197 | 13.00091 | 1421 ft | 0 kts | 102° |